createdAt,value
2023-03-23T15:57:58.675Z,146659.56
2023-03-23T16:00:28.028Z,146714.44
2023-03-23T16:03:05.249Z,146685.16
2023-03-23T16:05:33.407Z,146549.91
2023-03-23T16:08:00.915Z,146682.69
2023-03-23T16:10:28.990Z,146631.53
2023-03-23T16:12:56.273Z,146597.44
2023-03-23T16:15:23.352Z,146548.69
2023-03-23T16:17:50.608Z,146553.56
2023-03-23T16:20:20.500Z,146551.09
2023-03-23T16:22:48.745Z,146487.81
2023-03-23T16:25:16.065Z,146621.78
2023-03-23T16:27:43.462Z,146565.75
2023-03-23T16:30:16.112Z,146709.50
2023-03-23T16:35:10.253Z,146724.19
2023-03-23T16:37:37.417Z,146708.31
2023-03-23T16:40:05.950Z,146712.03
2023-03-23T16:42:33.048Z,146602.31
2023-03-23T16:45:00.175Z,146733.94
2023-03-23T16:47:27.411Z,146740.03
2023-03-23T16:49:54.694Z,146710.78
2023-03-23T16:52:21.674Z,146646.13
2023-03-23T16:54:48.691Z,146663.22
2023-03-23T16:57:16.527Z,146649.81
2023-03-23T16:59:43.975Z,146608.38
2023-03-23T17:02:12.459Z,146577.91
2023-03-23T17:04:46.487Z,146551.09
2023-03-23T17:07:14.337Z,146551.09
2023-03-23T17:09:42.660Z,146518.22
2023-03-23T17:12:09.850Z,146456.13
2023-03-23T17:14:37.056Z,146463.41
2023-03-23T17:17:04.153Z,146393.97
2023-03-23T17:19:31.654Z,146429.34
2023-03-23T17:21:59.977Z,146436.63
2023-03-23T17:24:27.320Z,146341.63
2023-03-23T17:26:55.242Z,146340.38
2023-03-23T17:29:25.226Z,146247.88
2023-03-23T17:31:52.650Z,146311.19
2023-03-23T17:34:19.868Z,146280.72
2023-03-23T17:36:47.023Z,146284.38
2023-03-23T17:39:14.007Z,146232.06
2023-03-23T17:41:41.002Z,146194.31
2023-03-23T17:44:08.204Z,146195.56
2023-03-23T17:46:35.393Z,146221.09
2023-03-23T17:49:02.555Z,146224.75
2023-03-23T17:51:29.668Z,146127.41
2023-03-23T17:53:57.324Z,146197.97
2023-03-23T17:56:24.724Z,146127.41
2023-03-23T17:58:51.757Z,146078.72
2023-03-23T18:01:18.818Z,146107.91
2023-03-23T18:03:46.236Z,146120.09
2023-03-23T18:06:13.424Z,146095.78
2023-03-23T18:08:40.588Z,146061.63
2023-03-23T18:11:08.845Z,146138.34
2023-03-23T18:13:37.781Z,146132.28
2023-03-23T18:16:06.087Z,146088.47
2023-03-23T18:18:33.589Z,146093.31
2023-03-23T18:21:10.607Z,146093.31
2023-03-23T18:23:46.150Z,146115.22
2023-03-23T18:26:21.818Z,146112.78
2023-03-23T18:28:51.124Z,146045.84
2023-03-23T18:31:19.897Z,146088.47
2023-03-23T18:33:49.425Z,146100.63
2023-03-23T18:36:19.267Z,146090.91
2023-03-23T18:38:47.142Z,146092.13
2023-03-23T18:41:15.066Z,146022.75
2023-03-23T18:43:42.545Z,146077.53
2023-03-23T18:46:09.977Z,146027.59
2023-03-23T18:48:37.510Z,146037.31
2023-03-23T18:51:04.762Z,146022.75
2023-03-23T18:53:31.973Z,146048.25
2023-03-23T18:56:14.120Z,146059.22
2023-03-23T18:58:41.387Z,146057.97
2023-03-23T19:01:12.376Z,146078.72
2023-03-23T19:03:40.349Z,146068.97
2023-03-23T19:06:23.524Z,146049.50
2023-03-23T19:08:52.111Z,146045.84
2023-03-23T19:11:20.569Z,146120.09
2023-03-23T19:14:00.382Z,146142.00
2023-03-23T19:16:35.446Z,146114.03
2023-03-23T19:19:04.551Z,146121.28
2023-03-23T19:21:32.601Z,146145.66
2023-03-23T19:24:01.466Z,146098.19
2023-03-23T19:26:37.679Z,146137.13
2023-03-23T19:31:38.420Z,146161.47
2023-03-23T19:34:06.123Z,146093.31
2023-03-23T19:36:33.261Z,146122.56
2023-03-23T19:39:02.668Z,146161.47
2023-03-23T19:41:31.505Z,146143.22
2023-03-23T19:43:59.427Z,146156.59
2023-03-23T19:46:30.227Z,146132.28
2023-03-23T19:48:59.078Z,146098.19
2023-03-23T19:51:27.584Z,146112.78
2023-03-23T19:53:57.262Z,146081.19
2023-03-23T19:56:25.331Z,146072.63
2023-03-23T19:58:52.563Z,145993.53
2023-03-23T20:01:19.819Z,146039.75
2023-03-23T20:03:47.461Z,146047.06
2023-03-23T20:06:15.357Z,146016.63
2023-03-23T20:08:45.488Z,146065.31
2023-03-23T20:11:15.320Z,146057.97
2023-03-23T20:13:43.193Z,146051.91
2023-03-23T20:16:10.457Z,146015.41
2023-03-23T20:18:38.394Z,146000.84
2023-03-23T20:21:11.863Z,146081.19
2023-03-23T20:23:41.105Z,146088.47
2023-03-23T20:26:14.718Z,146086.06
2023-03-23T20:28:42.701Z,146042.19
2023-03-23T20:31:23.510Z,146051.91
2023-03-23T20:34:02.686Z,146089.66
2023-03-23T20:36:36.425Z,146048.25
2023-03-23T20:39:08.011Z,146076.28
2023-03-23T20:41:38.728Z,146016.63
2023-03-23T20:44:09.147Z,146067.75
2023-03-23T20:46:36.470Z,146056.78
2023-03-23T20:49:05.908Z,146028.81
2023-03-23T20:51:33.490Z,146034.88
2023-03-23T20:54:01.951Z,146094.53
2023-03-23T20:56:29.415Z,146068.97
2023-03-23T20:58:56.626Z,146061.63
2023-03-23T21:01:24.448Z,146120.09
2023-03-23T21:03:53.925Z,146124.97
2023-03-23T21:06:21.268Z,146139.56
2023-03-23T21:08:48.801Z,146122.56
2023-03-23T21:11:21.303Z,146129.81
2023-03-23T21:13:49.010Z,146151.72
2023-03-23T21:16:18.078Z,146162.66
2023-03-23T21:18:45.969Z,146154.19
2023-03-23T21:21:14.851Z,146133.47
2023-03-23T21:23:46.696Z,146151.72
2023-03-23T21:26:16.748Z,146173.66
2023-03-23T21:28:45.511Z,146165.13
2023-03-23T21:31:14.917Z,146159.06
2023-03-23T21:33:41.997Z,146173.66
2023-03-23T21:36:09.837Z,146161.47
2023-03-23T21:38:38.173Z,146110.38
2023-03-23T21:41:11.733Z,146134.69
2023-03-23T21:43:40.533Z,146166.31
2023-03-23T21:46:09.365Z,146165.13
2023-03-23T21:48:38.451Z,146150.53
2023-03-23T21:51:11.104Z,146131.03
2023-03-23T21:53:38.133Z,146005.69
2023-03-23T21:56:07.085Z,146149.28
2023-03-23T21:58:34.251Z,146115.22
2023-03-23T22:01:02.145Z,146134.69
2023-03-23T22:03:35.098Z,146156.59
2023-03-23T22:06:12.059Z,146134.69
2023-03-23T22:08:41.091Z,146146.88
2023-03-23T22:11:26.221Z,146134.69
2023-03-23T22:13:55.405Z,146138.34
2023-03-23T22:16:23.440Z,146095.78
2023-03-23T22:18:52.303Z,146134.69
2023-03-23T22:21:22.077Z,146098.19
2023-03-23T22:23:49.257Z,146104.31
2023-03-23T22:26:16.568Z,146104.31
2023-03-23T22:28:46.134Z,146109.16
2023-03-23T22:31:19.073Z,146093.31
2023-03-23T22:33:47.586Z,146093.31
2023-03-23T22:36:16.110Z,146086.06
2023-03-23T22:38:45.449Z,146047.06
2023-03-23T22:41:19.119Z,146073.81
2023-03-23T22:43:48.056Z,146053.13
2023-03-23T22:46:15.751Z,146064.09
2023-03-23T22:48:43.797Z,146036.13
2023-03-23T22:51:12.287Z,146015.41
2023-03-23T22:53:39.869Z,146039.75
2023-03-23T22:56:07.572Z,146049.50
2023-03-23T22:58:35.267Z,146027.59
2023-03-23T23:01:06.957Z,145986.25
2023-03-23T23:03:35.247Z,146041.00
2023-03-23T23:06:02.804Z,146042.19
2023-03-23T23:08:30.658Z,145995.97
2023-03-23T23:11:00.023Z,145997.19
2023-03-23T23:13:28.080Z,145986.25
2023-03-23T23:15:58.156Z,145961.91
2023-03-23T23:18:26.922Z,145999.63
2023-03-23T23:20:56.199Z,145993.53
2023-03-23T23:23:25.423Z,145964.34
2023-03-23T23:25:53.110Z,146008.16
2023-03-23T23:28:21.378Z,146009.34
2023-03-23T23:30:49.179Z,146014.22
2023-03-23T23:33:16.679Z,145976.53
2023-03-23T23:35:43.656Z,146017.88
2023-03-23T23:38:12.357Z,145925.41
2023-03-23T23:40:41.185Z,146021.50
2023-03-23T23:43:11.080Z,146020.28
2023-03-23T23:45:38.699Z,145952.19
2023-03-23T23:48:06.049Z,146022.75
2023-03-23T23:50:33.722Z,145991.13
2023-03-23T23:53:00.859Z,146013.03
2023-03-23T23:55:28.515Z,145997.19
2023-03-23T23:57:56.044Z,145971.66
